createdAt,value
2018-04-26T00:00:42.472Z,99504
2018-04-26T00:03:13.084Z,99506
2018-04-26T00:05:43.657Z,99507
2018-04-26T00:08:14.307Z,99504
2018-04-26T00:10:44.706Z,99498
2018-04-26T00:13:15.615Z,99498
2018-04-26T00:15:45.995Z,99498
2018-04-26T00:18:16.603Z,99500
2018-04-26T00:20:47.334Z,99500
2018-04-26T00:23:17.701Z,99492
2018-04-26T00:25:48.780Z,99493
2018-04-26T00:28:19.258Z,99494
2018-04-26T00:30:49.747Z,99493
2018-04-26T00:33:20.302Z,99496
2018-04-26T00:35:51.152Z,99494
2018-04-26T00:38:21.477Z,99495
2018-04-26T00:40:52.992Z,99500
2018-04-26T00:43:23.065Z,99498
2018-04-26T00:45:54.581Z,99494
2018-04-26T00:48:26.075Z,99499
2018-04-26T00:50:56.595Z,99494
2018-04-26T00:53:26.990Z,99494
2018-04-26T00:55:57.589Z,99494
2018-04-26T00:58:28.085Z,99493
2018-04-26T01:00:58.784Z,99489
2018-04-26T01:03:29.835Z,99497
2018-04-26T01:06:01.679Z,99500
2018-04-26T01:08:32.709Z,99496
2018-04-26T01:11:03.226Z,99497
2018-04-26T01:13:33.731Z,99498
2018-04-26T01:16:03.804Z,99495
2018-04-26T01:18:34.376Z,99495
2018-04-26T01:21:04.793Z,99498
2018-04-26T01:23:35.125Z,99499
2018-04-26T01:26:05.637Z,99498
2018-04-26T01:28:36.435Z,99496
2018-04-26T01:31:07.217Z,99498
2018-04-26T01:33:38.219Z,99491
2018-04-26T01:36:08.814Z,99497
2018-04-26T01:38:39.636Z,99496
2018-04-26T01:41:10.257Z,99501
2018-04-26T01:43:40.785Z,99499
2018-04-26T01:46:11.323Z,99497
2018-04-26T01:48:42.049Z,99494
2018-04-26T01:51:12.503Z,99494
2018-04-26T01:53:43.311Z,99496
2018-04-26T01:56:14.435Z,99495
2018-04-26T01:58:44.277Z,99491
2018-04-26T02:01:14.615Z,99488
2018-04-26T02:03:45.222Z,99492
2018-04-26T02:06:16.214Z,99491
2018-04-26T02:08:46.506Z,99493
2018-04-26T02:11:16.478Z,99498
2018-04-26T02:13:47.045Z,99499
2018-04-26T02:16:18.709Z,99503
2018-04-26T02:18:50.152Z,99501
2018-04-26T02:21:20.906Z,99497
2018-04-26T02:23:50.909Z,99498
2018-04-26T02:26:20.830Z,99499
2018-04-26T02:28:51.344Z,99499
2018-04-26T02:31:22.239Z,99502
2018-04-26T02:33:52.689Z,99495
2018-04-26T02:36:23.532Z,99494
2018-04-26T02:38:54.505Z,99493
2018-04-26T02:41:25.618Z,99495
2018-04-26T02:43:56.958Z,99490
2018-04-26T02:46:27.963Z,99488
2018-04-26T02:48:57.934Z,99494
2018-04-26T02:51:28.369Z,99492
2018-04-26T02:53:59.766Z,99492
2018-04-26T02:56:30.712Z,99487
2018-04-26T02:59:01.701Z,99486
2018-04-26T03:01:32.228Z,99492
2018-04-26T03:04:02.657Z,99490
2018-04-26T03:06:33.118Z,99487
2018-04-26T03:09:03.519Z,99490
2018-04-26T03:11:34.025Z,99490
2018-04-26T03:14:04.555Z,99489
2018-04-26T03:16:34.892Z,99490
2018-04-26T03:19:05.518Z,99487
2018-04-26T03:21:35.443Z,99486
2018-04-26T03:24:06.211Z,99489
2018-04-26T03:26:36.661Z,99488
2018-04-26T03:29:07.222Z,99492
2018-04-26T03:31:37.165Z,99493
2018-04-26T03:34:08.029Z,99493
2018-04-26T03:36:38.665Z,99495
2018-04-26T03:39:09.325Z,99497
2018-04-26T03:41:39.582Z,99495
2018-04-26T03:44:10.393Z,99491
2018-04-26T03:46:41.044Z,99494
2018-04-26T03:49:11.890Z,99494
2018-04-26T03:51:42.719Z,99497
2018-04-26T03:54:13.148Z,99503
2018-04-26T03:56:43.544Z,99503
2018-04-26T03:59:14.107Z,99499
2018-04-26T04:01:56.615Z,99490
2018-04-26T04:04:38.963Z,99499
2018-04-26T04:07:09.576Z,99498
2018-04-26T04:09:40.188Z,99503
2018-04-26T04:12:10.630Z,99502
2018-04-26T04:14:41.152Z,99505
2018-04-26T04:17:12.208Z,99503
2018-04-26T04:19:43.186Z,99505
2018-04-26T04:22:13.656Z,99507
2018-04-26T04:24:46.655Z,99510
2018-04-26T04:27:18.061Z,99504
2018-04-26T04:29:48.528Z,99509
2018-04-26T04:32:19.257Z,99508
2018-04-26T04:34:49.376Z,99506
2018-04-26T04:37:19.724Z,99505
2018-04-26T04:39:50.112Z,99507
2018-04-26T04:42:20.631Z,99504
2018-04-26T04:44:51.161Z,99507
2018-04-26T04:47:21.426Z,99509
2018-04-26T04:49:52.032Z,99510
2018-04-26T04:52:22.479Z,99504
2018-04-26T04:54:53.107Z,99506
2018-04-26T04:57:23.633Z,99501
2018-04-26T04:59:53.451Z,99507
2018-04-26T05:02:23.968Z,99502
2018-04-26T05:04:54.577Z,99503
2018-04-26T05:07:25.957Z,99510
2018-04-26T05:09:56.634Z,99510
2018-04-26T05:12:27.342Z,99512
2018-04-26T05:14:57.786Z,99505
2018-04-26T05:17:29.388Z,99514
2018-04-26T05:19:59.834Z,99508
2018-04-26T05:22:30.652Z,99514
2018-04-26T05:25:01.486Z,99510
2018-04-26T05:27:32.618Z,99505
2018-04-26T05:30:03.655Z,99498
2018-04-26T05:32:34.533Z,99503
2018-04-26T05:35:05.061Z,99499
2018-04-26T05:37:35.495Z,99496
2018-04-26T05:40:06.135Z,99498
2018-04-26T05:42:36.857Z,99493
2018-04-26T05:45:07.800Z,99498
2018-04-26T05:47:39.031Z,99499
2018-04-26T05:50:10.141Z,99491
2018-04-26T05:52:40.722Z,99486
2018-04-26T05:55:11.572Z,99484
2018-04-26T05:57:42.195Z,99485
2018-04-26T06:00:12.781Z,99490
2018-04-26T06:02:43.235Z,99484
2018-04-26T06:05:13.836Z,99485
2018-04-26T06:07:44.406Z,99479
2018-04-26T06:10:15.073Z,99483
2018-04-26T06:12:46.023Z,99483
2018-04-26T06:15:17.224Z,99485
2018-04-26T06:17:48.121Z,99479
2018-04-26T06:20:18.390Z,99479
2018-04-26T06:22:49.005Z,99476
2018-04-26T06:25:19.683Z,99476
2018-04-26T06:27:50.198Z,99471
2018-04-26T06:30:20.196Z,99472
2018-04-26T06:32:50.538Z,99467
2018-04-26T06:35:20.928Z,99465
2018-04-26T06:37:51.875Z,99461
2018-04-26T06:40:22.085Z,99462
2018-04-26T06:42:52.543Z,99459
2018-04-26T06:45:23.278Z,99454
2018-04-26T06:47:54.035Z,99456
2018-04-26T06:50:24.353Z,99455
2018-04-26T06:52:54.353Z,99454
2018-04-26T06:55:24.751Z,99452
2018-04-26T06:57:55.179Z,99443
2018-04-26T07:00:25.071Z,99448
2018-04-26T07:02:55.038Z,99441
2018-04-26T07:05:25.663Z,99437
2018-04-26T07:07:56.108Z,99444
2018-04-26T07:10:26.020Z,99437
2018-04-26T07:12:57.042Z,99431
2018-04-26T07:15:27.749Z,99435
2018-04-26T07:17:58.289Z,99437
2018-04-26T07:20:28.562Z,99433
2018-04-26T07:22:59.301Z,99430
2018-04-26T07:25:29.915Z,99433
2018-04-26T07:28:00.889Z,99430
2018-04-26T07:30:31.289Z,99430
2018-04-26T07:33:02.027Z,99435
2018-04-26T07:35:32.390Z,99432
2018-04-26T07:38:02.263Z,99427
2018-04-26T07:40:32.903Z,99428
2018-04-26T07:43:04.369Z,99420
2018-04-26T07:45:34.623Z,99419
2018-04-26T07:48:05.320Z,99416
2018-04-26T07:50:35.832Z,99418
2018-04-26T07:53:06.693Z,99411
2018-04-26T07:55:37.832Z,99412
2018-04-26T07:58:08.204Z,99413
2018-04-26T08:00:38.616Z,99409
2018-04-26T08:03:09.731Z,99405
2018-04-26T08:05:40.451Z,99402
2018-04-26T08:08:10.840Z,99401
2018-04-26T08:10:41.498Z,99393
2018-04-26T08:13:12.370Z,99390
2018-04-26T08:15:42.942Z,99384
2018-04-26T08:18:13.243Z,99383
2018-04-26T08:20:43.992Z,99385
2018-04-26T08:23:14.352Z,99376
2018-04-26T08:25:45.577Z,99384
2018-04-26T08:28:16.434Z,99381
2018-04-26T08:30:47.171Z,99375
2018-04-26T08:33:17.088Z,99375
2018-04-26T08:35:47.620Z,99376
2018-04-26T08:38:18.782Z,99375
2018-04-26T08:40:49.381Z,99372
2018-04-26T08:43:20.114Z,99375
2018-04-26T08:45:50.645Z,99373
2018-04-26T08:48:20.667Z,99365
2018-04-26T08:50:51.352Z,99366
2018-04-26T08:53:21.992Z,99363
2018-04-26T08:55:52.460Z,99357
2018-04-26T08:58:22.989Z,99353
2018-04-26T09:00:53.966Z,99349
2018-04-26T09:03:24.354Z,99349
2018-04-26T09:05:54.795Z,99346
2018-04-26T09:08:25.178Z,99347
2018-04-26T09:10:55.305Z,99346
2018-04-26T09:13:26.240Z,99345
2018-04-26T09:15:56.416Z,99337
2018-04-26T09:18:26.736Z,99335
2018-04-26T09:20:57.153Z,99328
2018-04-26T09:23:27.646Z,99330
2018-04-26T09:25:58.215Z,99328
2018-04-26T09:28:28.828Z,99320
2018-04-26T09:30:59.339Z,99320
2018-04-26T09:33:29.294Z,99314
2018-04-26T09:35:59.203Z,99313
2018-04-26T09:38:30.148Z,99309
2018-04-26T09:41:00.633Z,99304
2018-04-26T09:43:31.436Z,99306
2018-04-26T09:46:02.448Z,99298
2018-04-26T09:48:32.905Z,99304
2018-04-26T09:51:03.492Z,99298
2018-04-26T09:53:34.351Z,99294
2018-04-26T09:56:05.467Z,99296
2018-04-26T09:58:36.485Z,99284
2018-04-26T10:01:10.588Z,99283
2018-04-26T10:03:41.782Z,99282
2018-04-26T10:06:27.291Z,99280
2018-04-26T10:08:57.299Z,99273
2018-04-26T10:11:27.821Z,99271
2018-04-26T10:13:58.357Z,99267
2018-04-26T10:16:28.773Z,99264
2018-04-26T10:18:59.010Z,99256
2018-04-26T10:21:29.504Z,99258
2018-04-26T10:24:00.205Z,99249
2018-04-26T10:26:30.759Z,99246
2018-04-26T10:29:01.420Z,99245
2018-04-26T10:31:32.024Z,99238
2018-04-26T10:34:02.863Z,99232
2018-04-26T10:36:34.044Z,99220
2018-04-26T10:39:04.782Z,99214
2018-04-26T10:41:34.790Z,99214
2018-04-26T10:44:05.521Z,99215
2018-04-26T10:46:36.126Z,99209
2018-04-26T10:49:06.082Z,99211
2018-04-26T10:51:37.068Z,99206
2018-04-26T10:54:07.810Z,99197
2018-04-26T10:56:38.284Z,99198
2018-04-26T10:59:08.918Z,99198
2018-04-26T11:01:39.150Z,99187
2018-04-26T11:04:09.955Z,99182
2018-04-26T11:06:40.301Z,99183
2018-04-26T11:09:11.170Z,99177
2018-04-26T11:11:42.934Z,99176
2018-04-26T11:14:13.503Z,99172
2018-04-26T11:16:44.001Z,99173
2018-04-26T11:19:14.368Z,99164
2018-04-26T11:21:44.951Z,99156
2018-04-26T11:24:14.927Z,99150
2018-04-26T11:26:45.781Z,99147
2018-04-26T11:29:16.566Z,99148
2018-04-26T11:31:47.149Z,99141
2018-04-26T11:34:18.150Z,99140
2018-04-26T11:36:49.092Z,99125
2018-04-26T11:39:19.752Z,99124
2018-04-26T11:41:50.360Z,99121
2018-04-26T11:44:20.883Z,99115
2018-04-26T11:46:51.808Z,99113
2018-04-26T11:49:22.258Z,99110
2018-04-26T11:51:52.796Z,99104
2018-04-26T11:54:23.571Z,99093
2018-04-26T11:56:54.472Z,99091
2018-04-26T11:59:25.360Z,99081
2018-04-26T12:01:55.862Z,99075
2018-04-26T12:04:26.381Z,99077
2018-04-26T12:06:57.025Z,99069
2018-04-26T12:09:27.736Z,99067
2018-04-26T12:11:57.661Z,99066
2018-04-26T12:14:28.049Z,99058
2018-04-26T12:16:58.512Z,99052
2018-04-26T12:19:28.822Z,99054
2018-04-26T12:21:59.285Z,99052
2018-04-26T12:24:29.464Z,99044
2018-04-26T12:27:00.097Z,99044
2018-04-26T12:29:30.821Z,99042
2018-04-26T12:32:01.279Z,99034
2018-04-26T12:34:32.080Z,99034
2018-04-26T12:37:02.755Z,99030
2018-04-26T12:39:33.174Z,99025
2018-04-26T12:42:04.326Z,99026
2018-04-26T12:44:34.640Z,99020
2018-04-26T12:47:05.515Z,99023
2018-04-26T12:49:36.412Z,99020
2018-04-26T12:52:06.632Z,99021
2018-04-26T12:54:37.359Z,99016
2018-04-26T12:57:08.404Z,99020
2018-04-26T12:59:39.319Z,99014
2018-04-26T13:02:10.203Z,99022
2018-04-26T13:04:41.141Z,99020
2018-04-26T13:07:11.297Z,99014
2018-04-26T13:09:42.021Z,99019
2018-04-26T13:12:12.796Z,99019
2018-04-26T13:14:43.708Z,99021
2018-04-26T13:17:13.750Z,99021
2018-04-26T13:19:44.313Z,99013
2018-04-26T13:22:15.412Z,99014
2018-04-26T13:24:46.050Z,99018
2018-04-26T13:27:16.731Z,99007
2018-04-26T13:29:47.348Z,99008
2018-04-26T13:32:17.958Z,98999
2018-04-26T13:34:48.658Z,98997
2018-04-26T13:37:19.471Z,99004
2018-04-26T13:39:51.190Z,99000
2018-04-26T13:42:21.979Z,98993
2018-04-26T13:44:52.598Z,98988
2018-04-26T13:47:22.712Z,98987
2018-04-26T13:49:53.559Z,98982
2018-04-26T13:52:24.215Z,98989
2018-04-26T13:54:54.776Z,98982
2018-04-26T13:57:25.445Z,98981
2018-04-26T13:59:56.380Z,98983
2018-04-26T14:02:26.923Z,98979
2018-04-26T14:04:57.536Z,98969
2018-04-26T14:07:28.479Z,98968
2018-04-26T14:09:58.731Z,98959
2018-04-26T14:12:29.104Z,98961
2018-04-26T14:14:59.463Z,98961
2018-04-26T14:17:29.403Z,98960
2018-04-26T14:20:00.219Z,98954
2018-04-26T14:22:31.242Z,98959
2018-04-26T14:25:01.586Z,98964
2018-04-26T14:27:32.620Z,98963
2018-04-26T14:30:03.360Z,98969
2018-04-26T14:32:34.433Z,98963
2018-04-26T14:35:05.787Z,98967
2018-04-26T14:37:36.970Z,98979
2018-04-26T14:40:08.057Z,98976
2018-04-26T14:42:38.628Z,98976
2018-04-26T14:45:09.531Z,98978
2018-04-26T14:47:40.488Z,98981
2018-04-26T14:50:11.343Z,98969
2018-04-26T14:52:41.710Z,98968
2018-04-26T14:55:12.534Z,98973
2018-04-26T14:57:43.389Z,98974
2018-04-26T15:00:14.069Z,98977
2018-04-26T15:02:44.738Z,98975
2018-04-26T15:05:15.411Z,98977
2018-04-26T15:07:46.144Z,98984
2018-04-26T15:10:16.759Z,98984
2018-04-26T15:12:47.381Z,98982
2018-04-26T15:15:17.719Z,98980
2018-04-26T15:17:48.572Z,98982
2018-04-26T15:20:18.751Z,98980
2018-04-26T15:22:49.414Z,98975
2018-04-26T15:25:19.896Z,98972
2018-04-26T15:27:50.234Z,98970
2018-04-26T15:30:20.071Z,98974
2018-04-26T15:32:50.827Z,98977
2018-04-26T15:35:21.821Z,98977
2018-04-26T15:37:52.599Z,98979
2018-04-26T15:40:22.877Z,98981
2018-04-26T15:42:53.610Z,98980
2018-04-26T15:45:24.559Z,98985
2018-04-26T15:47:55.219Z,98984
2018-04-26T15:50:33.523Z,98989
2018-04-26T15:53:15.418Z,98991
2018-04-26T15:55:58.032Z,99000
2018-04-26T15:58:48.531Z,99000
2018-04-26T16:01:36.726Z,98996
2018-04-26T16:04:18.580Z,99001
2018-04-26T16:07:00.568Z,98993
2018-04-26T16:09:55.121Z,99002
2018-04-26T16:12:56.802Z,99000
2018-04-26T16:15:39.134Z,99002
2018-04-26T16:18:26.685Z,99006
2018-04-26T16:21:14.218Z,99009
2018-04-26T16:24:01.906Z,99018
2018-04-26T16:26:51.606Z,99015
2018-04-26T16:29:48.095Z,99012
2018-04-26T16:32:35.373Z,99023
2018-04-26T16:35:21.457Z,99019
2018-04-26T16:38:08.999Z,99028
2018-04-26T16:40:39.855Z,99031
2018-04-26T16:43:10.489Z,99027
2018-04-26T16:45:40.772Z,99030
2018-04-26T16:48:11.384Z,99033
2018-04-26T16:50:41.748Z,99031
2018-04-26T16:53:12.233Z,99036
2018-04-26T16:55:42.796Z,99038
2018-04-26T16:58:13.391Z,99041
2018-04-26T17:00:44.074Z,99046
2018-04-26T17:03:14.525Z,99043
2018-04-26T17:05:45.025Z,99048
2018-04-26T17:08:15.788Z,99054
2018-04-26T17:10:46.263Z,99072
2018-04-26T17:13:16.923Z,99080
2018-04-26T17:15:47.615Z,99083
2018-04-26T17:18:17.971Z,99081
2018-04-26T17:20:48.697Z,99084
2018-04-26T17:23:19.529Z,99088
2018-04-26T17:25:50.922Z,99091
2018-04-26T17:28:21.759Z,99084
2018-04-26T17:30:52.355Z,99084
2018-04-26T17:33:23.542Z,99084
2018-04-26T17:35:54.312Z,99089
2018-04-26T17:38:24.159Z,99089
2018-04-26T17:40:54.798Z,99093
2018-04-26T17:43:25.425Z,99093
2018-04-26T17:45:55.964Z,99092
2018-04-26T17:48:25.975Z,99094
2018-04-26T17:50:56.584Z,99098
2018-04-26T17:53:27.311Z,99095
2018-04-26T17:55:57.879Z,99098
2018-04-26T17:58:29.086Z,99099
2018-04-26T18:00:59.628Z,99098
2018-04-26T18:03:30.242Z,99112
2018-04-26T18:06:00.822Z,99115
2018-04-26T18:08:31.510Z,99118
2018-04-26T18:11:02.158Z,99126
2018-04-26T18:13:32.714Z,99125
2018-04-26T18:16:02.524Z,99122
2018-04-26T18:18:33.528Z,99131
2018-04-26T18:21:04.100Z,99142
2018-04-26T18:23:34.891Z,99141
2018-04-26T18:26:05.882Z,99145
2018-04-26T18:28:36.528Z,99148
2018-04-26T18:31:06.320Z,99145
2018-04-26T18:33:37.070Z,99152
2018-04-26T18:36:08.149Z,99158
2018-04-26T18:38:38.806Z,99159
2018-04-26T18:41:10.591Z,99161
2018-04-26T18:43:41.320Z,99169
2018-04-26T18:46:12.133Z,99171
2018-04-26T18:48:42.700Z,99167
2018-04-26T18:51:14.189Z,99161
2018-04-26T18:53:44.732Z,99160
2018-04-26T18:56:15.728Z,99158
2018-04-26T18:58:46.406Z,99168
2018-04-26T19:01:17.670Z,99171
2018-04-26T19:03:49.299Z,99173
2018-04-26T19:06:20.591Z,99165
2018-04-26T19:08:51.856Z,99163
2018-04-26T19:11:22.892Z,99167
2018-04-26T19:13:54.900Z,99162
2018-04-26T19:16:26.156Z,99169
2018-04-26T19:18:57.319Z,99171
2018-04-26T19:21:28.693Z,99173
2018-04-26T19:23:59.789Z,99172
2018-04-26T19:26:31.048Z,99172
2018-04-26T19:29:01.682Z,99175
2018-04-26T19:31:32.390Z,99176
2018-04-26T19:34:02.797Z,99173
2018-04-26T19:36:34.118Z,99177
2018-04-26T19:39:04.345Z,99175
2018-04-26T19:41:34.998Z,99178
2018-04-26T19:44:05.710Z,99179
2018-04-26T19:46:37.312Z,99177
2018-04-26T19:49:07.761Z,99179
2018-04-26T19:51:38.873Z,99179
2018-04-26T19:54:10.574Z,99181
2018-04-26T19:56:41.206Z,99182
2018-04-26T19:59:11.841Z,99184
2018-04-26T20:01:42.475Z,99188
2018-04-26T20:04:13.201Z,99191
2018-04-26T20:06:43.831Z,99192
2018-04-26T20:09:13.779Z,99193
2018-04-26T20:11:44.207Z,99194
2018-04-26T20:14:14.954Z,99190
2018-04-26T20:16:45.675Z,99193
2018-04-26T20:19:16.474Z,99191
2018-04-26T20:21:47.449Z,99194
2018-04-26T20:24:18.432Z,99200
2018-04-26T20:26:48.745Z,99200
2018-04-26T20:29:19.321Z,99200
2018-04-26T20:31:49.260Z,99206
2018-04-26T20:34:20.347Z,99204
2018-04-26T20:36:51.181Z,99210
2018-04-26T20:39:21.348Z,99208
2018-04-26T20:41:56.303Z,99213
2018-04-26T20:44:38.199Z,99210
2018-04-26T20:47:08.935Z,99214
2018-04-26T20:49:39.864Z,99206
2018-04-26T20:52:10.292Z,99203
2018-04-26T20:54:40.794Z,99209
2018-04-26T20:57:11.008Z,99208
2018-04-26T20:59:42.277Z,99212
2018-04-26T21:02:13.167Z,99221
2018-04-26T21:04:43.891Z,99218
2018-04-26T21:07:14.905Z,99215
2018-04-26T21:09:45.876Z,99217
2018-04-26T21:12:16.406Z,99219
2018-04-26T21:14:46.847Z,99225
2018-04-26T21:17:17.591Z,99221
2018-04-26T21:19:48.413Z,99223
2018-04-26T21:22:19.051Z,99225
2018-04-26T21:24:50.124Z,99225
2018-04-26T21:27:20.727Z,99227
2018-04-26T21:29:51.585Z,99232
2018-04-26T21:32:21.568Z,99229
2018-04-26T21:34:52.417Z,99224
2018-04-26T21:37:23.586Z,99227
2018-04-26T21:39:54.512Z,99224
2018-04-26T21:42:25.452Z,99228
2018-04-26T21:44:56.408Z,99225
2018-04-26T21:47:26.995Z,99239
2018-04-26T21:50:03.367Z,99241
2018-04-26T21:52:39.848Z,99239
2018-04-26T21:55:16.444Z,99234
2018-04-26T21:57:53.274Z,99243
2018-04-26T22:00:29.248Z,99240
2018-04-26T22:02:59.971Z,99242
2018-04-26T22:05:32.541Z,99245
2018-04-26T22:08:03.177Z,99245
2018-04-26T22:10:33.813Z,99243
2018-04-26T22:13:04.042Z,99236
2018-04-26T22:15:35.365Z,99236
2018-04-26T22:18:06.023Z,99230
2018-04-26T22:20:36.542Z,99236
2018-04-26T22:23:07.091Z,99226
2018-04-26T22:25:37.661Z,99227
2018-04-26T22:28:08.579Z,99227
2018-04-26T22:30:39.501Z,99227
2018-04-26T22:33:10.401Z,99229
2018-04-26T22:35:41.145Z,99230
2018-04-26T22:38:11.387Z,99233
2018-04-26T22:40:42.001Z,99234
2018-04-26T22:43:12.119Z,99233
2018-04-26T22:45:42.622Z,99232
2018-04-26T22:48:13.199Z,99226
2018-04-26T22:50:43.614Z,99223
2018-04-26T22:53:14.250Z,99221
2018-04-26T22:55:44.664Z,99219
2018-04-26T22:58:15.649Z,99221
2018-04-26T23:00:46.242Z,99216
2018-04-26T23:03:16.772Z,99215
2018-04-26T23:05:47.509Z,99217
2018-04-26T23:08:18.041Z,99210
2018-04-26T23:10:48.887Z,99213
2018-04-26T23:13:19.209Z,99215
2018-04-26T23:15:50.483Z,99208
2018-04-26T23:18:21.441Z,99208
2018-04-26T23:20:52.012Z,99211
2018-04-26T23:23:21.982Z,99217
2018-04-26T23:25:52.777Z,99219
2018-04-26T23:28:23.551Z,99214
2018-04-26T23:30:54.338Z,99218
2018-04-26T23:33:25.019Z,99219
2018-04-26T23:35:55.620Z,99218
2018-04-26T23:38:25.728Z,99221
2018-04-26T23:40:55.640Z,99223
2018-04-26T23:43:26.365Z,99224
2018-04-26T23:45:57.414Z,99220
2018-04-26T23:48:28.154Z,99219
2018-04-26T23:50:58.475Z,99218
2018-04-26T23:53:28.603Z,99221
2018-04-26T23:55:59.001Z,99222
2018-04-26T23:58:29.456Z,99229
